Time;durP1;ratioP1;P1;durP2;ratioP2;P2;SDS_P1;SDS_P2;PMS_P1;PMS_P2;Temp;Humidity;BMP_temperature;BMP_pressure;BME280_temperature;BME280_humidity;BME280_pressure;Samples;Min_cycle;Max_cycle;Signal;HPM_P1;HPM_P2
2023/03/07 00:01:38;;;;;;;18.13;6.88;;;;;;;;;;4989792;28;20125;-78
2023/03/07 00:04:03;;;;;;;16.80;7.05;;;;;;;;;;4993517;28;20066;-77
2023/03/07 00:06:29;;;;;;;16.85;7.55;;;;;;;;;;4993072;28;20037;-77
2023/03/07 00:08:59;;;;;;;18.70;7.13;;;;;;;;;;4993251;28;20042;-78
2023/03/07 00:11:26;;;;;;;19.42;7.28;;;;;;;;;;4990902;28;20045;-77
2023/03/07 00:13:52;;;;;;;21.65;8.07;;;;;;;;;;4974236;28;20034;-77
2023/03/07 00:16:19;;;;;;;14.10;6.75;;;;;;;;;;4985064;28;20041;-77
2023/03/07 00:18:45;;;;;;;14.45;6.45;;;;;;;;;;4989402;28;20038;-77
2023/03/07 00:21:13;;;;;;;14.55;5.85;;;;;;;;;;4993097;28;20371;-77
2023/03/07 00:23:41;;;;;;;6.75;4.18;;;;;;;;;;4992378;28;20042;-77
2023/03/07 00:26:10;;;;;;;12.77;5.40;;;;;;;;;;4993062;28;20030;-77
2023/03/07 00:28:35;;;;;;;12.82;5.95;;;;;;;;;;5005548;28;20038;-78
2023/03/07 00:31:03;;;;;;;12.15;5.25;;;;;;;;;;5008339;28;20084;-78
2023/03/07 00:33:29;;;;;;;10.95;4.82;;;;;;;;;;4985516;28;20511;-77
2023/03/07 00:36:19;;;;;;;9.30;4.90;;;;;;;;;;4990357;28;20149;-78
2023/03/07 00:38:45;;;;;;;7.32;3.38;;;;;;;;;;4983275;28;20133;-78
2023/03/07 00:41:16;;;;;;;4.97;2.55;;;;;;;;;;5007410;28;20049;-77
2023/03/07 00:43:41;;;;;;;3.10;1.77;;;;;;;;;;4984505;28;20026;-78
2023/03/07 00:46:08;;;;;;;3.78;1.45;;;;;;;;;;4996576;28;20045;-77
2023/03/07 00:48:35;;;;;;;4.20;1.15;;;;;;;;;;5010282;28;20043;-76
2023/03/07 00:51:00;;;;;;;2.28;0.77;;;;;;;;;;5009282;28;20061;-76
2023/03/07 00:53:26;;;;;;;1.70;0.77;;;;;;;;;;4995737;28;20085;-76
2023/03/07 00:55:59;;;;;;;1.80;0.93;;;;;;;;;;4994601;28;20038;-76
2023/03/07 00:58:26;;;;;;;1.33;0.70;;;;;;;;;;4991874;28;20062;-75
2023/03/07 01:00:52;;;;;;;1.42;0.80;;;;;;;;;;4994519;28;20038;-75
2023/03/07 01:03:18;;;;;;;2.63;0.90;;;;;;;;;;4996094;28;20057;-75
2023/03/07 01:05:44;;;;;;;1.13;0.70;;;;;;;;;;4996157;28;20116;-75
2023/03/07 01:08:09;;;;;;;1.45;0.80;;;;;;;;;;4992214;28;20090;-76
2023/03/07 01:10:35;;;;;;;0.80;0.55;;;;;;;;;;4994973;28;20038;-76
2023/03/07 01:13:00;;;;;;;1.48;0.80;;;;;;;;;;4996580;28;20034;-75
2023/03/07 01:15:26;;;;;;;1.58;0.80;;;;;;;;;;4995701;28;20541;-75
2023/03/07 01:17:52;;;;;;;2.03;1.08;;;;;;;;;;4996197;28;20093;-75
2023/03/07 01:20:17;;;;;;;1.60;1.00;;;;;;;;;;4974836;28;20493;-76
2023/03/07 01:22:43;;;;;;;1.25;0.80;;;;;;;;;;4986500;28;20038;-75
2023/03/07 01:25:09;;;;;;;2.25;0.95;;;;;;;;;;4983289;28;20035;-75
2023/03/07 01:27:34;;;;;;;1.75;1.00;;;;;;;;;;4989361;28;20026;-75
2023/03/07 01:30:00;;;;;;;2.90;1.08;;;;;;;;;;5006768;28;20478;-75
2023/03/07 01:32:25;;;;;;;1.85;0.93;;;;;;;;;;4993817;28;20077;-75
2023/03/07 01:34:50;;;;;;;3.42;0.88;;;;;;;;;;4990646;28;20103;-75
2023/03/07 01:37:17;;;;;;;3.88;1.40;;;;;;;;;;4995819;28;20050;-75
2023/03/07 01:39:43;;;;;;;1.90;1.02;;;;;;;;;;4995895;28;20034;-75
2023/03/07 01:42:09;;;;;;;3.90;1.15;;;;;;;;;;4994123;28;20034;-75
2023/03/07 01:45:07;;;;;;;2.00;1.15;;;;;;;;;;4995155;28;20049;-76
2023/03/07 01:47:33;;;;;;;4.95;1.10;;;;;;;;;;4988529;28;20046;-76
2023/03/07 01:50:00;;;;;;;2.25;0.95;;;;;;;;;;4988922;28;20058;-76
2023/03/07 01:52:29;;;;;;;1.80;0.80;;;;;;;;;;4985269;28;20051;-75
2023/03/07 01:54:59;;;;;;;3.50;1.30;;;;;;;;;;4995224;28;20348;-75
2023/03/07 01:57:36;;;;;;;2.90;1.25;;;;;;;;;;5007342;28;20073;-75
2023/03/07 02:00:08;;;;;;;2.33;1.20;;;;;;;;;;4990764;28;20050;-75
2023/03/07 02:02:35;;;;;;;1.90;1.20;;;;;;;;;;4987875;28;20034;-76
2023/03/07 02:05:06;;;;;;;2.40;1.13;;;;;;;;;;4994030;28;20089;-76
2023/03/07 02:07:36;;;;;;;1.60;0.90;;;;;;;;;;4989709;28;20070;-76
2023/03/07 02:10:02;;;;;;;2.15;1.10;;;;;;;;;;4992969;28;20043;-75
2023/03/07 02:12:28;;;;;;;1.60;0.82;;;;;;;;;;4987941;28;20030;-75
2023/03/07 02:14:53;;;;;;;5.20;0.95;;;;;;;;;;5009716;28;20550;-76
2023/03/07 02:17:19;;;;;;;2.65;1.00;;;;;;;;;;4982930;28;20117;-76
2023/03/07 02:20:00;;;;;;;5.00;1.08;;;;;;;;;;4995143;28;20038;-75
2023/03/07 02:22:26;;;;;;;4.00;0.93;;;;;;;;;;4988111;28;20047;-75
2023/03/07 02:25:07;;;;;;;2.90;1.02;;;;;;;;;;5010087;28;20080;-76
2023/03/07 02:27:33;;;;;;;7.68;1.40;;;;;;;;;;4988168;28;20046;-76
2023/03/07 02:29:59;;;;;;;2.28;1.20;;;;;;;;;;5009395;28;20065;-76
2023/03/07 02:32:24;;;;;;;1.60;0.90;;;;;;;;;;4976578;28;20070;-76
2023/03/07 02:34:50;;;;;;;1.73;1.00;;;;;;;;;;4987826;28;20498;-76
2023/03/07 02:37:19;;;;;;;6.38;1.15;;;;;;;;;;4988812;28;20042;-75
2023/03/07 02:39:45;;;;;;;5.65;1.20;;;;;;;;;;5010033;28;20084;-75
2023/03/07 02:42:16;;;;;;;4.60;1.00;;;;;;;;;;4993239;28;20054;-76
2023/03/07 02:44:44;;;;;;;5.30;1.10;;;;;;;;;;4990127;28;20062;-76
2023/03/07 02:47:09;;;;;;;2.88;0.93;;;;;;;;;;4993937;28;20042;-76
2023/03/07 02:49:35;;;;;;;3.00;1.00;;;;;;;;;;4988164;28;20045;-75
2023/03/07 02:52:01;;;;;;;3.65;1.05;;;;;;;;;;4994141;28;20046;-75
2023/03/07 02:54:26;;;;;;;4.47;1.23;;;;;;;;;;5009665;28;20493;-75
2023/03/07 02:56:52;;;;;;;1.73;1.00;;;;;;;;;;4994386;28;20117;-76
2023/03/07 02:59:18;;;;;;;4.90;1.05;;;;;;;;;;5009132;28;20030;-76
2023/03/07 03:01:43;;;;;;;2.53;1.20;;;;;;;;;;4992235;28;20054;-75
2023/03/07 03:04:09;;;;;;;2.92;1.13;;;;;;;;;;4992313;28;20058;-76
2023/03/07 03:06:34;;;;;;;2.45;1.13;;;;;;;;;;4993231;28;20030;-76
2023/03/07 03:09:00;;;;;;;2.15;1.10;;;;;;;;;;4994479;28;20038;-76
2023/03/07 03:11:25;;;;;;;4.82;1.20;;;;;;;;;;4993506;28;20042;-75
2023/03/07 03:13:50;;;;;;;4.15;1.20;;;;;;;;;;4987656;28;20075;-76
2023/03/07 03:16:16;;;;;;;1.38;0.88;;;;;;;;;;5008849;28;20098;-76
2023/03/07 03:18:41;;;;;;;4.07;1.15;;;;;;;;;;4990743;28;20835;-76
2023/03/07 03:21:08;;;;;;;3.92;1.05;;;;;;;;;;4990923;28;20488;-75
2023/03/07 03:23:34;;;;;;;4.95;1.15;;;;;;;;;;4992691;28;20085;-75
2023/03/07 03:26:03;;;;;;;5.10;1.58;;;;;;;;;;4993620;28;20042;-76
2023/03/07 03:28:29;;;;;;;3.35;1.50;;;;;;;;;;4994006;28;20037;-76
2023/03/07 03:31:09;;;;;;;3.80;1.17;;;;;;;;;;4993693;28;20042;-76
2023/03/07 03:33:35;;;;;;;3.53;1.10;;;;;;;;;;4978003;28;20149;-76
2023/03/07 03:36:08;;;;;;;3.33;1.60;;;;;;;;;;5006150;28;20075;-76
2023/03/07 03:38:34;;;;;;;2.33;1.30;;;;;;;;;;5003190;28;20221;-75
2023/03/07 03:41:03;;;;;;;4.97;1.52;;;;;;;;;;4989200;28;20164;-76
2023/03/07 03:43:28;;;;;;;3.13;1.20;;;;;;;;;;4987163;28;20483;-75
2023/03/07 03:45:55;;;;;;;3.08;1.73;;;;;;;;;;4992873;28;20044;-76
2023/03/07 03:48:21;;;;;;;3.65;1.42;;;;;;;;;;4990231;28;20042;-75
2023/03/07 03:50:46;;;;;;;2.50;1.60;;;;;;;;;;4987091;28;20517;-75
2023/03/07 03:53:11;;;;;;;7.05;1.63;;;;;;;;;;4993839;28;20128;-76
2023/03/07 03:55:37;;;;;;;5.22;1.60;;;;;;;;;;4993307;28;20042;-76
2023/03/07 03:58:03;;;;;;;4.55;1.50;;;;;;;;;;4993849;28;20045;-75
2023/03/07 04:00:29;;;;;;;2.70;1.33;;;;;;;;;;4990590;28;20045;-76
2023/03/07 04:02:55;;;;;;;4.20;1.75;;;;;;;;;;4986407;28;20058;-76
2023/03/07 04:05:20;;;;;;;1.98;1.30;;;;;;;;;;4993155;28;20034;-76
2023/03/07 04:07:46;;;;;;;5.45;1.40;;;;;;;;;;4990603;28;20030;-76
2023/03/07 04:10:12;;;;;;;3.95;1.60;;;;;;;;;;4991209;28;20122;-76
2023/03/07 04:12:38;;;;;;;2.65;1.38;;;;;;;;;;4993303;28;20085;-76
2023/03/07 04:15:06;;;;;;;3.35;1.60;;;;;;;;;;4993295;28;20117;-77
2023/03/07 04:17:31;;;;;;;6.13;1.60;;;;;;;;;;4993217;28;20050;-76
2023/03/07 04:19:57;;;;;;;3.60;1.55;;;;;;;;;;4997252;28;20502;-76
2023/03/07 04:22:22;;;;;;;2.75;1.58;;;;;;;;;;4996718;28;20113;-76
2023/03/07 04:24:48;;;;;;;8.93;1.70;;;;;;;;;;4997418;28;20030;-77
2023/03/07 04:27:13;;;;;;;3.90;1.55;;;;;;;;;;4997170;28;20026;-77
2023/03/07 04:29:39;;;;;;;12.50;1.70;;;;;;;;;;4997487;28;20081;-76
2023/03/07 04:32:04;;;;;;;4.03;1.80;;;;;;;;;;4996887;28;20039;-76
2023/03/07 04:34:30;;;;;;;4.47;1.42;;;;;;;;;;4997230;28;20031;-76
2023/03/07 04:36:55;;;;;;;5.10;1.55;;;;;;;;;;4991720;28;20066;-76
2023/03/07 04:39:21;;;;;;;2.72;1.48;;;;;;;;;;4995522;28;20046;-76
2023/03/07 04:41:46;;;;;;;5.80;1.65;;;;;;;;;;4992644;28;20102;-76
2023/03/07 04:44:13;;;;;;;2.70;1.25;;;;;;;;;;4978676;28;20039;-76
2023/03/07 04:46:38;;;;;;;6.15;1.70;;;;;;;;;;4992311;28;20053;-75
2023/03/07 04:49:04;;;;;;;3.45;1.50;;;;;;;;;;4996590;28;20030;-76
2023/03/07 04:51:29;;;;;;;5.85;1.85;;;;;;;;;;4991882;28;20090;-75
2023/03/07 04:53:56;;;;;;;2.80;1.50;;;;;;;;;;4985146;28;20050;-76
2023/03/07 04:56:21;;;;;;;3.80;1.27;;;;;;;;;;4989786;28;20097;-76
2023/03/07 04:58:47;;;;;;;4.35;1.40;;;;;;;;;;4995681;28;20386;-76
2023/03/07 05:01:13;;;;;;;2.55;1.48;;;;;;;;;;4996482;28;20540;-75
2023/03/07 05:03:38;;;;;;;5.93;1.60;;;;;;;;;;4988459;28;20034;-76
2023/03/07 05:06:06;;;;;;;3.30;1.67;;;;;;;;;;4989364;28;20045;-76
2023/03/07 05:08:31;;;;;;;2.60;1.30;;;;;;;;;;5011443;28;20466;-75
2023/03/07 05:10:57;;;;;;;3.00;1.65;;;;;;;;;;4987800;28;20034;-75
2023/03/07 05:13:23;;;;;;;4.30;1.60;;;;;;;;;;4996469;28;20117;-76
2023/03/07 05:15:50;;;;;;;3.58;1.48;;;;;;;;;;4996143;28;20540;-76
2023/03/07 05:18:15;;;;;;;2.85;1.70;;;;;;;;;;4995299;28;20105;-76
2023/03/07 05:20:42;;;;;;;8.68;1.92;;;;;;;;;;4993494;28;20125;-76
2023/03/07 05:23:07;;;;;;;2.92;1.40;;;;;;;;;;4983619;28;20046;-76
2023/03/07 05:25:32;;;;;;;2.10;1.25;;;;;;;;;;4982303;28;20030;-76
2023/03/07 05:27:58;;;;;;;5.47;2.03;;;;;;;;;;4996044;28;20042;-76
2023/03/07 05:30:23;;;;;;;7.50;1.95;;;;;;;;;;4993924;28;20042;-75
2023/03/07 05:32:50;;;;;;;9.52;2.53;;;;;;;;;;4982441;28;20034;-76
2023/03/07 05:35:15;;;;;;;4.80;1.70;;;;;;;;;;4982894;28;20100;-75
2023/03/07 05:37:41;;;;;;;3.53;1.70;;;;;;;;;;4996217;28;20466;-76
2023/03/07 05:40:10;;;;;;;6.43;1.95;;;;;;;;;;4995785;28;20049;-76
2023/03/07 05:42:35;;;;;;;4.22;1.70;;;;;;;;;;4983680;28;20070;-76
2023/03/07 05:45:04;;;;;;;5.50;1.80;;;;;;;;;;4979456;28;20483;-76
2023/03/07 05:47:30;;;;;;;6.15;1.90;;;;;;;;;;4993278;28;20042;-75
2023/03/07 05:49:55;;;;;;;3.88;1.73;;;;;;;;;;4985363;28;20039;-75
2023/03/07 05:52:21;;;;;;;4.13;1.60;;;;;;;;;;4979682;28;20410;-75
2023/03/07 05:54:46;;;;;;;4.78;2.10;;;;;;;;;;4981248;28;20034;-75
2023/03/07 05:57:12;;;;;;;3.97;1.90;;;;;;;;;;4995446;28;20425;-75
2023/03/07 05:59:37;;;;;;;8.13;2.20;;;;;;;;;;4995664;28;20034;-76
2023/03/07 06:02:02;;;;;;;5.88;1.88;;;;;;;;;;4989871;28;20134;-76
2023/03/07 06:04:28;;;;;;;6.47;2.45;;;;;;;;;;4979662;28;20034;-75
2023/03/07 06:06:53;;;;;;;4.45;2.10;;;;;;;;;;4992835;28;20486;-76
2023/03/07 06:09:21;;;;;;;9.18;2.55;;;;;;;;;;4995029;28;20476;-76
2023/03/07 06:11:46;;;;;;;4.07;2.30;;;;;;;;;;4992211;28;20042;-76
2023/03/07 06:14:11;;;;;;;6.22;2.88;;;;;;;;;;4994966;28;20045;-76
2023/03/07 06:16:37;;;;;;;5.45;2.05;;;;;;;;;;4992623;28;20503;-76
2023/03/07 06:19:02;;;;;;;7.05;2.17;;;;;;;;;;4995210;28;20117;-75
2023/03/07 06:21:29;;;;;;;4.85;2.50;;;;;;;;;;4995044;28;20046;-75
2023/03/07 06:23:55;;;;;;;4.07;2.10;;;;;;;;;;4994574;28;20114;-75
2023/03/07 06:26:20;;;;;;;9.63;3.17;;;;;;;;;;4994255;28;20120;-76
2023/03/07 06:28:46;;;;;;;10.68;3.50;;;;;;;;;;4994779;28;20031;-76
2023/03/07 06:31:17;;;;;;;10.63;4.13;;;;;;;;;;5002174;28;20038;-76
2023/03/07 06:33:43;;;;;;;8.55;4.18;;;;;;;;;;4978059;28;20073;-75
2023/03/07 06:36:11;;;;;;;10.75;4.35;;;;;;;;;;4993667;28;20042;-75
2023/03/07 06:38:36;;;;;;;12.80;4.55;;;;;;;;;;5009761;28;20030;-76
2023/03/07 06:41:02;;;;;;;16.58;5.85;;;;;;;;;;4992688;28;20164;-76
2023/03/07 06:43:28;;;;;;;6.35;3.83;;;;;;;;;;5002432;28;20492;-75
2023/03/07 06:45:53;;;;;;;6.88;3.67;;;;;;;;;;4990797;28;20025;-76
2023/03/07 06:48:19;;;;;;;15.18;5.25;;;;;;;;;;4990131;28;20434;-75
2023/03/07 06:50:45;;;;;;;9.95;4.75;;;;;;;;;;4994400;28;20038;-75
2023/03/07 06:53:11;;;;;;;7.68;3.45;;;;;;;;;;4986710;28;20050;-76
2023/03/07 06:55:36;;;;;;;12.25;3.75;;;;;;;;;;4989661;28;20092;-76
2023/03/07 06:58:02;;;;;;;8.50;3.58;;;;;;;;;;4993934;28;20042;-75
2023/03/07 07:00:27;;;;;;;8.65;3.78;;;;;;;;;;4988585;28;20069;-76
2023/03/07 07:02:53;;;;;;;7.57;3.67;;;;;;;;;;4989787;28;20030;-76
2023/03/07 07:05:19;;;;;;;9.30;4.20;;;;;;;;;;4989589;28;20084;-76
2023/03/07 07:07:44;;;;;;;10.40;3.53;;;;;;;;;;4984650;28;20034;-76
2023/03/07 07:10:10;;;;;;;8.25;3.35;;;;;;;;;;4991197;28;20068;-76
2023/03/07 07:12:36;;;;;;;9.77;4.50;;;;;;;;;;4974179;28;20043;-76
2023/03/07 07:15:04;;;;;;;7.15;3.55;;;;;;;;;;4984683;28;20085;-77
2023/03/07 07:17:35;;;;;;;9.63;3.47;;;;;;;;;;5001841;28;20485;-75
2023/03/07 07:20:04;;;;;;;7.90;4.10;;;;;;;;;;4989977;28;20121;-76
2023/03/07 07:22:30;;;;;;;8.90;3.30;;;;;;;;;;4983437;28;20552;-76
2023/03/07 07:24:55;;;;;;;8.23;3.80;;;;;;;;;;4991080;28;20117;-76
2023/03/07 07:27:21;;;;;;;7.18;4.32;;;;;;;;;;4991652;28;20125;-75
2023/03/07 07:29:46;;;;;;;5.97;3.60;;;;;;;;;;4990651;28;20073;-76
2023/03/07 07:32:11;;;;;;;11.23;3.63;;;;;;;;;;4983748;28;20459;-76
2023/03/07 07:34:37;;;;;;;5.97;3.63;;;;;;;;;;4984976;28;20038;-76
2023/03/07 07:37:02;;;;;;;8.23;3.92;;;;;;;;;;4989151;28;20041;-76
2023/03/07 07:39:28;;;;;;;13.07;3.95;;;;;;;;;;4986701;28;20053;-76
2023/03/07 07:41:53;;;;;;;7.82;3.90;;;;;;;;;;5006502;28;20042;-76
2023/03/07 07:44:19;;;;;;;6.25;3.78;;;;;;;;;;4991481;28;20041;-77
2023/03/07 07:46:44;;;;;;;7.78;4.00;;;;;;;;;;4992764;28;20393;-76
2023/03/07 07:49:10;;;;;;;7.60;3.33;;;;;;;;;;4992494;28;20201;-75
2023/03/07 07:51:35;;;;;;;8.13;3.95;;;;;;;;;;4992157;28;20496;-75
2023/03/07 07:54:01;;;;;;;5.85;3.47;;;;;;;;;;4991777;28;20039;-75
2023/03/07 07:56:26;;;;;;;7.53;3.75;;;;;;;;;;4987738;28;20522;-76
2023/03/07 07:58:52;;;;;;;6.93;2.90;;;;;;;;;;4993422;28;20130;-76
2023/03/07 08:01:22;;;;;;;6.15;2.90;;;;;;;;;;4991913;28;20449;-75
2023/03/07 08:03:48;;;;;;;5.85;2.50;;;;;;;;;;4993727;28;20128;-75
2023/03/07 08:06:18;;;;;;;6.50;2.40;;;;;;;;;;4991447;28;20054;-76
2023/03/07 08:08:43;;;;;;;4.07;2.20;;;;;;;;;;4991378;28;20393;-75
2023/03/07 08:11:09;;;;;;;8.30;2.55;;;;;;;;;;4987225;28;20128;-76
2023/03/07 08:13:34;;;;;;;7.28;2.88;;;;;;;;;;4987889;28;20031;-77
2023/03/07 08:16:07;;;;;;;7.07;3.20;;;;;;;;;;4991040;28;20048;-77
2023/03/07 08:18:33;;;;;;;6.28;2.67;;;;;;;;;;4989946;28;20042;-77
2023/03/07 08:20:58;;;;;;;4.28;2.72;;;;;;;;;;4993248;28;20544;-77
2023/03/07 08:23:24;;;;;;;4.22;2.60;;;;;;;;;;4993502;28;20069;-76
2023/03/07 08:25:50;;;;;;;7.32;2.92;;;;;;;;;;4982355;28;20042;-76
2023/03/07 08:28:15;;;;;;;6.30;2.60;;;;;;;;;;4978321;28;20023;-77
2023/03/07 08:30:41;;;;;;;4.88;2.55;;;;;;;;;;4986371;28;20053;-77
2023/03/07 08:33:06;;;;;;;5.18;2.50;;;;;;;;;;4995840;28;20476;-77
2023/03/07 08:35:32;;;;;;;4.68;2.65;;;;;;;;;;4988298;28;20033;-76
2023/03/07 08:37:59;;;;;;;8.18;4.05;;;;;;;;;;4991588;28;20038;-76
2023/03/07 08:40:28;;;;;;;6.07;3.40;;;;;;;;;;4983361;28;20539;-76
2023/03/07 08:42:54;;;;;;;8.70;2.83;;;;;;;;;;4991612;28;20034;-76
2023/03/07 08:45:21;;;;;;;6.47;2.83;;;;;;;;;;4992071;28;20042;-77
2023/03/07 08:47:46;;;;;;;5.90;2.60;;;;;;;;;;4991894;28;20394;-77
2023/03/07 08:50:12;;;;;;;7.43;2.80;;;;;;;;;;4988186;28;20031;-77
2023/03/07 08:52:37;;;;;;;5.63;2.40;;;;;;;;;;4982152;28;20050;-76
2023/03/07 08:55:03;;;;;;;4.00;2.15;;;;;;;;;;4976645;28;20042;-76
2023/03/07 08:57:28;;;;;;;5.38;2.22;;;;;;;;;;4981617;28;20027;-76
2023/03/07 08:59:54;;;;;;;9.63;2.42;;;;;;;;;;4984448;28;20394;-77
2023/03/07 09:02:19;;;;;;;6.18;3.03;;;;;;;;;;4987913;28;20478;-77
2023/03/07 09:04:45;;;;;;;6.90;3.17;;;;;;;;;;4993808;28;20038;-75
2023/03/07 09:07:11;;;;;;;2.80;1.70;;;;;;;;;;4992345;28;20449;-77
2023/03/07 09:09:36;;;;;;;8.82;2.70;;;;;;;;;;4981699;28;20051;-76
2023/03/07 09:12:02;;;;;;;6.70;3.10;;;;;;;;;;4993376;28;20037;-77
2023/03/07 09:14:27;;;;;;;8.55;3.38;;;;;;;;;;4994546;28;20399;-77
2023/03/07 09:16:53;;;;;;;9.20;3.85;;;;;;;;;;4984074;28;20035;-77
2023/03/07 09:19:18;;;;;;;5.85;2.72;;;;;;;;;;4994547;28;20500;-77
2023/03/07 09:21:44;;;;;;;6.45;2.70;;;;;;;;;;4995261;28;20031;-77
2023/03/07 09:24:09;;;;;;;4.53;2.40;;;;;;;;;;4995819;28;20092;-77
2023/03/07 09:26:35;;;;;;;8.13;2.42;;;;;;;;;;4995739;28;20109;-76
2023/03/07 09:29:00;;;;;;;6.38;1.70;;;;;;;;;;4995906;28;20050;-77
2023/03/07 09:31:26;;;;;;;4.57;1.80;;;;;;;;;;4984703;28;20037;-76
2023/03/07 09:33:51;;;;;;;4.57;1.30;;;;;;;;;;4993070;28;20056;-76
2023/03/07 09:36:18;;;;;;;3.83;1.30;;;;;;;;;;4991345;28;20069;-77
2023/03/07 09:38:44;;;;;;;7.32;1.20;;;;;;;;;;5002515;28;20394;-76
2023/03/07 09:41:47;;;;;;;2.08;1.10;;;;;;;;;;5004568;28;20061;-77
2023/03/07 09:44:24;;;;;;;3.53;1.35;;;;;;;;;;4991894;28;20598;-77
2023/03/07 09:47:09;;;;;;;3.55;1.20;;;;;;;;;;4990805;28;20034;-77
2023/03/07 09:49:50;;;;;;;4.78;1.10;;;;;;;;;;4991913;28;20062;-77
2023/03/07 09:52:18;;;;;;;2.42;1.00;;;;;;;;;;4990745;28;20080;-76
2023/03/07 09:55:24;;;;;;;1.77;0.82;;;;;;;;;;4978603;28;20039;-76
2023/03/07 09:57:54;;;;;;;2.08;0.90;;;;;;;;;;4991522;28;20042;-76
2023/03/07 10:00:29;;;;;;;1.85;0.77;;;;;;;;;;4981631;28;20486;-77
2023/03/07 10:02:58;;;;;;;5.00;0.90;;;;;;;;;;4967146;28;20062;-77
2023/03/07 10:06:01;;;;;;;2.03;0.93;;;;;;;;;;4984974;28;20177;-76
2023/03/07 10:08:32;;;;;;;2.17;0.73;;;;;;;;;;4927133;29;20962;-76
2023/03/07 10:11:28;;;;;;;2.72;0.90;;;;;;;;;;4977139;28;20602;-77
2023/03/07 10:14:02;;;;;;;3.33;0.80;;;;;;;;;;4978713;28;20526;-76
2023/03/07 10:16:36;;;;;;;3.08;0.90;;;;;;;;;;4989294;28;20406;-76
2023/03/07 10:19:33;;;;;;;5.22;1.02;;;;;;;;;;4988853;28;20117;-77
2023/03/07 10:22:36;;;;;;;4.63;0.95;;;;;;;;;;4928090;28;20070;-77
2023/03/07 10:25:24;;;;;;;2.63;0.80;;;;;;;;;;4987910;28;20042;-76
2023/03/07 10:27:51;;;;;;;1.33;0.70;;;;;;;;;;5006185;28;20070;-77
2023/03/07 10:30:19;;;;;;;5.10;0.93;;;;;;;;;;4986242;28;20546;-77
2023/03/07 10:32:47;;;;;;;2.17;1.05;;;;;;;;;;4986487;28;20054;-77
2023/03/07 10:35:20;;;;;;;3.10;1.00;;;;;;;;;;4976821;28;20073;-77
2023/03/07 10:37:54;;;;;;;1.23;0.70;;;;;;;;;;4979776;28;20044;-76
2023/03/07 10:40:24;;;;;;;3.92;0.98;;;;;;;;;;4977141;28;20038;-76
2023/03/07 10:42:50;;;;;;;4.35;0.88;;;;;;;;;;5000728;28;20046;-76
2023/03/07 10:45:16;;;;;;;3.58;0.88;;;;;;;;;;4980297;28;20419;-77
2023/03/07 10:47:42;;;;;;;1.90;0.80;;;;;;;;;;4990634;28;20080;-76
2023/03/07 10:50:07;;;;;;;4.10;1.65;;;;;;;;;;4982980;28;20038;-77
2023/03/07 10:52:38;;;;;;;1.70;1.10;;;;;;;;;;4979211;28;20054;-77
2023/03/07 10:55:32;;;;;;;7.18;1.05;;;;;;;;;;4997761;28;20478;-77
2023/03/07 10:58:12;;;;;;;2.77;0.80;;;;;;;;;;4977065;28;20038;-77
2023/03/07 11:00:38;;;;;;;2.00;0.85;;;;;;;;;;4990955;28;20295;-77
2023/03/07 11:03:04;;;;;;;2.60;0.75;;;;;;;;;;4978358;28;20474;-77
2023/03/07 11:05:35;;;;;;;2.75;0.80;;;;;;;;;;4991038;28;20351;-77
2023/03/07 11:08:20;;;;;;;2.47;0.73;;;;;;;;;;4989433;28;20043;-77
2023/03/07 11:10:45;;;;;;;6.63;0.93;;;;;;;;;;4982975;28;20487;-77
2023/03/07 11:13:16;;;;;;;2.42;1.00;;;;;;;;;;4984201;28;20042;-77
2023/03/07 11:15:43;;;;;;;2.38;0.90;;;;;;;;;;4977204;28;20549;-77
2023/03/07 11:18:31;;;;;;;3.13;0.77;;;;;;;;;;4983147;28;20122;-77
2023/03/07 11:20:57;;;;;;;1.75;0.50;;;;;;;;;;4990075;28;20042;-77
2023/03/07 11:23:29;;;;;;;2.05;0.63;;;;;;;;;;4984380;28;20026;-76
2023/03/07 11:25:56;;;;;;;4.63;0.90;;;;;;;;;;4998667;28;20085;-76
2023/03/07 11:28:29;;;;;;;2.60;1.02;;;;;;;;;;5003729;28;20109;-76
2023/03/07 11:31:07;;;;;;;2.10;0.80;;;;;;;;;;4990831;28;20034;-76
2023/03/07 11:33:47;;;;;;;1.77;0.60;;;;;;;;;;4990486;28;20108;-76
2023/03/07 11:36:20;;;;;;;0.95;0.60;;;;;;;;;;4975533;28;20097;-77
2023/03/07 11:39:00;;;;;;;2.80;0.82;;;;;;;;;;4990438;28;20045;-77
2023/03/07 11:41:30;;;;;;;1.83;0.80;;;;;;;;;;4988509;28;20460;-76
2023/03/07 11:44:23;;;;;;;3.63;0.90;;;;;;;;;;4988630;28;20386;-77
2023/03/07 11:47:01;;;;;;;3.05;0.80;;;;;;;;;;4990175;28;20033;-76
2023/03/07 11:49:43;;;;;;;2.95;0.75;;;;;;;;;;4988440;28;20141;-77
2023/03/07 11:52:20;;;;;;;2.35;0.70;;;;;;;;;;4981883;28;20058;-76
2023/03/07 11:55:01;;;;;;;2.55;0.70;;;;;;;;;;4987923;28;20042;-76
2023/03/07 11:57:45;;;;;;;2.15;0.70;;;;;;;;;;4975489;28;20042;-76
2023/03/07 12:00:19;;;;;;;4.30;2.17;;;;;;;;;;4981416;28;20640;-77
2023/03/07 12:03:12;;;;;;;3.85;0.90;;;;;;;;;;4964520;28;20034;-76
2023/03/07 12:05:49;;;;;;;7.35;1.10;;;;;;;;;;4981256;28;20046;-77
2023/03/07 12:08:31;;;;;;;2.45;1.00;;;;;;;;;;4986133;28;20909;-77
2023/03/07 12:11:18;;;;;;;3.38;1.13;;;;;;;;;;4984360;28;20053;-77
2023/03/07 12:14:00;;;;;;;4.47;0.82;;;;;;;;;;4979095;28;20076;-77
2023/03/07 12:16:39;;;;;;;3.15;0.90;;;;;;;;;;4984234;28;20494;-77
2023/03/07 12:19:23;;;;;;;3.97;0.80;;;;;;;;;;4981048;28;20046;-77
2023/03/07 12:22:20;;;;;;;1.35;0.68;;;;;;;;;;4982875;28;20117;-76
2023/03/07 12:25:11;;;;;;;2.08;1.05;;;;;;;;;;4971890;28;20058;-77
2023/03/07 12:27:41;;;;;;;6.50;0.90;;;;;;;;;;4973102;28;20057;-77
2023/03/07 12:30:39;;;;;;;4.57;0.95;;;;;;;;;;4981807;28;20088;-77
2023/03/07 12:33:05;;;;;;;5.80;1.48;;;;;;;;;;4977392;28;20125;-77
2023/03/07 12:35:41;;;;;;;2.00;0.82;;;;;;;;;;4983965;28;20141;-77
2023/03/07 12:38:24;;;;;;;1.30;0.73;;;;;;;;;;4983414;28;20212;-77
2023/03/07 12:41:00;;;;;;;1.67;0.80;;;;;;;;;;4989089;28;20050;-77
2023/03/07 12:43:31;;;;;;;5.05;0.95;;;;;;;;;;4978017;28;20070;-76
2023/03/07 12:46:08;;;;;;;2.70;0.80;;;;;;;;;;5001629;28;20085;-76
2023/03/07 12:48:52;;;;;;;1.05;0.70;;;;;;;;;;4983962;28;20458;-77
2023/03/07 12:51:28;;;;;;;;;;;;;;;;;;5004323;28;20038;-77
2023/03/07 12:54:02;;;;;;;1.23;0.73;;;;;;;;;;4985008;28;19918;-77
2023/03/07 12:56:54;;;;;;;2.55;1.20;;;;;;;;;;4975009;28;20393;-77
2023/03/07 12:59:20;;;;;;;4.82;0.90;;;;;;;;;;4997173;28;20153;-76
2023/03/07 13:01:49;;;;;;;1.58;0.80;;;;;;;;;;4977260;28;20520;-77
2023/03/07 13:04:33;;;;;;;2.40;0.90;;;;;;;;;;4989930;28;20137;-77
2023/03/07 13:07:08;;;;;;;3.00;0.80;;;;;;;;;;4985876;28;20042;-77
2023/03/07 13:09:34;;;;;;;2.75;0.77;;;;;;;;;;4983186;28;20498;-77
2023/03/07 13:12:15;;;;;;;2.33;0.70;;;;;;;;;;5004166;28;20913;-77
2023/03/07 13:14:41;;;;;;;1.75;0.90;;;;;;;;;;4983726;28;20050;-76
2023/03/07 13:17:11;;;;;;;4.25;0.80;;;;;;;;;;4984199;28;20058;-77
2023/03/07 13:19:38;;;;;;;1.90;0.70;;;;;;;;;;4982700;28;20142;-78
2023/03/07 13:22:15;;;;;;;2.20;0.77;;;;;;;;;;4969088;28;20118;-78
2023/03/07 13:24:42;;;;;;;0.85;0.60;;;;;;;;;;4988377;28;20967;-78
2023/03/07 13:27:14;;;;;;;1.13;0.55;;;;;;;;;;4987634;28;20066;-77
2023/03/07 13:30:16;;;;;;;4.28;0.75;;;;;;;;;;5006249;28;20027;-77
2023/03/07 13:35:37;;;;;;;1.40;0.73;;;;;;;;;;4987088;28;20042;-78
2023/03/07 13:38:43;;;;;;;2.88;0.88;;;;;;;;;;4970865;28;20039;-78
2023/03/07 13:41:10;;;;;;;1.10;0.65;;;;;;;;;;4981845;28;20031;-78
2023/03/07 13:43:45;;;;;;;1.52;0.80;;;;;;;;;;4987704;28;20406;-78
2023/03/07 13:46:41;;;;;;;2.13;0.80;;;;;;;;;;4973883;28;20033;-77
2023/03/07 13:49:06;;;;;;;4.47;0.95;;;;;;;;;;4984367;28;20045;-77
2023/03/07 13:51:32;;;;;;;1.17;0.70;;;;;;;;;;4978889;28;20042;-78
2023/03/07 13:54:09;;;;;;;1.58;0.77;;;;;;;;;;4987329;28;20050;-78
2023/03/07 13:56:39;;;;;;;1.50;0.68;;;;;;;;;;4984115;28;20465;-77
2023/03/07 13:59:20;;;;;;;2.65;1.00;;;;;;;;;;4985994;28;20054;-77
2023/03/07 14:01:51;;;;;;;2.10;0.70;;;;;;;;;;4981518;28;20699;-77
2023/03/07 14:04:29;;;;;;;1.38;0.70;;;;;;;;;;4986097;28;20060;-78
2023/03/07 14:07:00;;;;;;;0.93;0.55;;;;;;;;;;4980889;28;20045;-77
2023/03/07 14:09:38;;;;;;;1.20;0.70;;;;;;;;;;4986144;28;20105;-78
2023/03/07 14:12:54;;;;;;;1.45;0.63;;;;;;;;;;4996057;28;20487;-78
2023/03/07 14:15:22;;;;;;;1.35;0.60;;;;;;;;;;4952640;28;20055;-78
2023/03/07 14:18:15;;;;;;;1.73;0.70;;;;;;;;;;4981885;28;20044;-78
2023/03/07 14:21:28;;;;;;;1.15;0.70;;;;;;;;;;4984817;28;20037;-77
2023/03/07 14:24:03;;;;;;;0.80;0.60;;;;;;;;;;4981397;28;20057;-77
2023/03/07 14:26:32;;;;;;;0.40;0.40;;;;;;;;;;4976449;28;20504;-78
2023/03/07 14:29:21;;;;;;;1.52;0.70;;;;;;;;;;4994931;28;20536;-77
2023/03/07 14:31:51;;;;;;;3.65;0.60;;;;;;;;;;4977286;28;20046;-77
2023/03/07 14:34:20;;;;;;;4.30;0.60;;;;;;;;;;4977310;28;20068;-78
2023/03/07 14:36:52;;;;;;;3.75;0.80;;;;;;;;;;4974019;28;20030;-77
2023/03/07 14:39:18;;;;;;;2.83;0.60;;;;;;;;;;4986825;28;20046;-77
2023/03/07 14:41:53;;;;;;;2.28;0.80;;;;;;;;;;4993809;28;20474;-77
2023/03/07 14:44:21;;;;;;;4.78;0.85;;;;;;;;;;4988163;28;20130;-78
2023/03/07 14:47:10;;;;;;;2.78;0.75;;;;;;;;;;4989271;28;20046;-78
2023/03/07 14:49:44;;;;;;;0.90;0.63;;;;;;;;;;4986521;28;20035;-78
2023/03/07 14:52:13;;;;;;;;;;;;;;;;;;4979709;28;20136;-77
2023/03/07 14:54:39;;;;;;;2.30;0.70;;;;;;;;;;4982996;28;20835;-77
2023/03/07 14:57:15;;;;;;;2.00;0.70;;;;;;;;;;4990946;28;20044;-77
2023/03/07 14:59:40;;;;;;;1.95;0.70;;;;;;;;;;4989693;28;20034;-77
2023/03/07 15:02:17;;;;;;;1.50;0.80;;;;;;;;;;4977741;28;20395;-78
2023/03/07 15:04:43;;;;;;;1.58;0.80;;;;;;;;;;4994478;28;20038;-77